Time;durP1;ratioP1;P1;durP2;ratioP2;P2;SDS_P1;SDS_P2;PMS_P1;PMS_P2;Temp;Humidity;BMP_temperature;BMP_pressure;BME280_temperature;BME280_humidity;BME280_pressure;Samples;Min_cycle;Max_cycle;Signal;HPM_P1;HPM_P2
2022/07/29 00:01:46;;;;;;;7.28;2.08;;;21.10;99.60;;;;;;5042013;28;20071;-72
2022/07/29 00:04:12;;;;;;;5.40;1.85;;;21.10;99.90;;;;;;5048143;28;20037;-71
2022/07/29 00:06:38;;;;;;;8.07;2.50;;;21.10;99.90;;;;;;5049359;28;20101;-72
2022/07/29 00:09:05;;;;;;;1.80;1.70;;;21.00;99.70;;;;;;5047033;28;20029;-71
2022/07/29 00:11:30;;;;;;;4.15;1.88;;;20.90;99.90;;;;;;5041686;28;20065;-72
2022/07/29 00:13:56;;;;;;;5.40;2.22;;;20.80;99.90;;;;;;5040373;28;20068;-73
2022/07/29 00:16:22;;;;;;;6.68;2.60;;;20.70;99.90;;;;;;5044413;28;20558;-73
2022/07/29 00:18:48;;;;;;;10.65;2.92;;;20.70;99.90;;;;;;5046295;28;20401;-72
2022/07/29 00:21:14;;;;;;;14.07;3.42;;;20.70;99.90;;;;;;5043457;28;20025;-72
2022/07/29 00:23:40;;;;;;;15.43;3.63;;;20.70;99.90;;;;;;5049699;28;20478;-73
2022/07/29 00:26:05;;;;;;;7.22;3.15;;;20.30;99.90;;;;;;5054504;28;20028;-72
2022/07/29 00:28:31;;;;;;;11.48;3.30;;;19.90;99.90;;;;;;5059784;28;20366;-73
2022/07/29 00:30:57;;;;;;;6.13;3.38;;;19.80;99.90;;;;;;5042812;28;20025;-73
2022/07/29 00:33:23;;;;;;;10.43;3.17;;;19.90;99.90;;;;;;5051575;28;20074;-71
2022/07/29 00:35:49;;;;;;;6.28;3.28;;;19.70;99.90;;;;;;5045230;28;20017;-72
2022/07/29 00:38:20;;;;;;;8.13;3.65;;;19.80;99.90;;;;;;5056464;28;20505;-72
2022/07/29 00:40:46;;;;;;;10.38;3.47;;;19.70;99.90;;;;;;5049424;28;20377;-74
2022/07/29 00:43:13;;;;;;;10.63;3.70;;;19.60;99.90;;;;;;5053247;28;20093;-74
2022/07/29 00:45:40;;;;;;;7.07;3.03;;;19.30;99.90;;;;;;5048354;28;20032;-74
2022/07/29 00:48:06;;;;;;;12.70;4.05;;;18.90;99.90;;;;;;5040449;28;20025;-73
2022/07/29 00:50:32;;;;;;;7.47;2.97;;;18.70;99.90;;;;;;5051387;28;20103;-72
2022/07/29 00:52:58;;;;;;;6.28;3.75;;;18.60;99.90;;;;;;5051774;28;20040;-73
2022/07/29 00:55:24;;;;;;;6.22;3.55;;;18.70;99.90;;;;;;5052913;28;20094;-72
2022/07/29 00:57:50;;;;;;;8.10;3.28;;;18.90;99.90;;;;;;5044439;28;20078;-73
2022/07/29 01:00:19;;;;;;;5.65;2.95;;;18.90;99.90;;;;;;5055344;28;20025;-70
2022/07/29 01:02:50;;;;;;;6.80;3.10;;;18.80;99.90;;;;;;5049996;28;20021;-72
2022/07/29 01:05:20;;;;;;;13.40;3.63;;;18.70;99.90;;;;;;5052494;28;20359;-72
2022/07/29 01:07:49;;;;;;;7.25;3.08;;;18.80;99.90;;;;;;5049174;28;20542;-72
2022/07/29 01:10:16;;;;;;;6.22;3.35;;;18.80;99.90;;;;;;5054566;28;20017;-72
2022/07/29 01:12:44;;;;;;;6.70;3.40;;;18.90;99.90;;;;;;5043317;28;20100;-72
2022/07/29 01:15:10;;;;;;;5.82;2.97;;;18.90;99.90;;;;;;5047372;28;20052;-72
2022/07/29 01:18:17;;;;;;;5.22;2.85;;;18.90;99.90;;;;;;5051189;28;20060;-71
2022/07/29 01:21:05;;;;;;;7.72;3.78;;;18.90;99.90;;;;;;5048596;28;20056;-71
2022/07/29 01:24:08;;;;;;;9.20;3.55;;;18.80;99.90;;;;;;5048986;28;20082;-71
2022/07/29 01:27:02;;;;;;;6.28;3.55;;;18.90;99.90;;;;;;5047620;28;20025;-71
2022/07/29 01:29:56;;;;;;;4.57;3.35;;;18.90;99.90;;;;;;5048523;28;20560;-71
2022/07/29 01:32:35;;;;;;;7.18;3.45;;;18.90;99.90;;;;;;5045051;28;20024;-71
2022/07/29 01:35:06;;;;;;;6.57;4.10;;;19.10;99.90;;;;;;5044509;28;20021;-73
2022/07/29 01:37:50;;;;;;;6.65;4.18;;;19.00;99.90;;;;;;5053019;28;20041;-73
2022/07/29 01:40:34;;;;;;;6.32;4.07;;;18.80;99.90;;;;;;5050334;28;20024;-73
2022/07/29 01:43:09;;;;;;;7.30;4.63;;;18.80;99.90;;;;;;5047143;28;20025;-74
2022/07/29 01:45:40;;;;;;;5.40;3.30;;;18.80;99.90;;;;;;5038557;28;20048;-73
2022/07/29 01:48:25;;;;;;;5.85;3.88;;;18.90;99.90;;;;;;5041248;28;20021;-73
2022/07/29 01:51:25;;;;;;;7.35;3.40;;;18.90;99.90;;;;;;5056748;28;20025;-72
2022/07/29 01:54:14;;;;;;;6.05;3.47;;;19.10;99.90;;;;;;5047381;28;20044;-73
2022/07/29 01:56:42;;;;;;;5.65;3.30;;;19.10;99.90;;;;;;5042788;28;20112;-72
2022/07/29 01:59:09;;;;;;;6.28;4.20;;;19.30;99.90;;;;;;5049812;28;20036;-72
2022/07/29 02:01:37;;;;;;;7.03;4.82;;;19.20;99.90;;;;;;5046877;28;20370;-71
2022/07/29 02:04:05;;;;;;;5.95;4.13;;;19.10;99.90;;;;;;5050266;28;20107;-72
2022/07/29 02:06:33;;;;;;;9.07;4.40;;;19.00;99.90;;;;;;5049098;28;20024;-72
2022/07/29 02:08:59;;;;;;;10.15;4.80;;;19.00;99.90;;;;;;5045095;28;20025;-71
2022/07/29 02:11:25;;;;;;;6.70;4.53;;;19.10;99.90;;;;;;5045819;28;20043;-71
2022/07/29 02:13:54;;;;;;;6.78;4.03;;;19.20;99.90;;;;;;5040187;28;20025;-72
2022/07/29 02:16:22;;;;;;;7.00;4.47;;;19.20;99.90;;;;;;5043844;28;20024;-72
2022/07/29 02:18:52;;;;;;;8.60;4.25;;;19.30;99.90;;;;;;5049694;28;20021;-73
2022/07/29 02:21:23;;;;;;;7.47;4.65;;;19.30;99.90;;;;;;5051798;28;20021;-72
2022/07/29 02:23:52;;;;;;;8.60;4.67;;;19.10;99.90;;;;;;5041787;28;20036;-73
2022/07/29 02:26:20;;;;;;;5.35;4.00;;;18.50;99.90;;;;;;5044711;28;20786;-72
2022/07/29 02:28:48;;;;;;;7.70;4.57;;;18.30;99.90;;;;;;5047928;28;20560;-72
2022/07/29 02:31:15;;;;;;;5.05;4.18;;;18.20;99.90;;;;;;5048232;28;20030;-73
2022/07/29 02:33:41;;;;;;;7.00;4.40;;;18.20;99.90;;;;;;5045655;28;20033;-73
2022/07/29 02:36:07;;;;;;;4.63;4.03;;;18.40;99.90;;;;;;5044074;28;20027;-73
2022/07/29 02:38:57;;;;;;;5.90;4.60;;;18.50;99.90;;;;;;5047320;28;20029;-74
2022/07/29 02:41:44;;;;;;;10.25;3.92;;;18.70;99.90;;;;;;5041586;28;20022;-74
2022/07/29 02:44:18;;;;;;;7.38;4.30;;;18.80;99.90;;;;;;5047800;28;20029;-72
2022/07/29 02:47:12;;;;;;;9.93;4.88;;;18.90;99.90;;;;;;5046320;28;20371;-72
2022/07/29 02:49:47;;;;;;;6.95;4.95;;;18.80;99.90;;;;;;5045632;28;20128;-73
2022/07/29 02:52:39;;;;;;;9.82;5.55;;;18.90;99.90;;;;;;5052583;28;20417;-74
2022/07/29 02:55:34;;;;;;;8.38;5.50;;;18.90;99.90;;;;;;5041219;28;20041;-71
2022/07/29 02:58:28;;;;;;;6.30;4.78;;;19.00;99.90;;;;;;5047457;28;20087;-73
2022/07/29 03:00:57;;;;;;;7.90;5.05;;;19.00;99.90;;;;;;5041932;28;20127;-73
2022/07/29 03:03:28;;;;;;;7.22;4.80;;;18.90;99.90;;;;;;5043042;28;20028;-74
2022/07/29 03:05:56;;;;;;;8.25;4.57;;;18.80;99.90;;;;;;5043122;28;20032;-72
2022/07/29 03:08:22;;;;;;;6.88;5.50;;;18.80;99.90;;;;;;5043146;28;20469;-73
2022/07/29 03:10:49;;;;;;;6.90;5.43;;;18.70;99.90;;;;;;5044316;28;20105;-74
2022/07/29 03:13:16;;;;;;;8.82;5.18;;;18.60;99.90;;;;;;5044032;28;20072;-74
2022/07/29 03:15:45;;;;;;;8.70;4.78;;;18.40;99.90;;;;;;5041636;28;20561;-74
2022/07/29 03:18:12;;;;;;;9.07;5.20;;;18.20;99.90;;;;;;5045397;28;20086;-73
2022/07/29 03:20:38;;;;;;;5.93;5.43;;;18.00;99.90;;;;;;5040992;28;20106;-74
2022/07/29 03:23:05;;;;;;;7.00;5.13;;;18.10;99.90;;;;;;5038708;28;20561;-74
2022/07/29 03:25:30;;;;;;;7.80;4.90;;;18.30;99.90;;;;;;5043023;28;20457;-74
2022/07/29 03:27:56;;;;;;;9.55;5.05;;;18.40;99.90;;;;;;5049321;28;20136;-74
2022/07/29 03:30:23;;;;;;;6.25;5.57;;;18.40;99.90;;;;;;5039096;28;20079;-73
2022/07/29 03:32:49;;;;;;;5.78;4.78;;;18.50;99.90;;;;;;5046111;28;20021;-74
2022/07/29 03:35:19;;;;;;;6.93;5.15;;;18.50;99.90;;;;;;5036862;28;20029;-73
2022/07/29 03:37:44;;;;;;;6.82;4.90;;;18.50;99.90;;;;;;5043295;28;20447;-73
2022/07/29 03:40:13;;;;;;;9.70;5.32;;;18.40;99.90;;;;;;5045165;28;20053;-72
2022/07/29 03:42:43;;;;;;;9.48;6.03;;;18.50;99.90;;;;;;5042490;28;20068;-72
2022/07/29 03:45:13;;;;;;;10.25;5.35;;;18.60;99.90;;;;;;5039826;28;20494;-71
2022/07/29 03:47:45;;;;;;;7.30;5.32;;;18.60;99.90;;;;;;5039693;28;20124;-72
2022/07/29 03:50:14;;;;;;;9.13;5.77;;;18.50;99.90;;;;;;5042354;28;20036;-71
2022/07/29 03:52:40;;;;;;;6.78;5.05;;;18.30;99.90;;;;;;5046334;28;20033;-72
2022/07/29 03:55:07;;;;;;;8.05;6.00;;;18.30;99.90;;;;;;5039704;28;20022;-72
2022/07/29 03:57:34;;;;;;;7.57;5.22;;;18.40;99.90;;;;;;5041276;28;20037;-72
2022/07/29 04:00:03;;;;;;;8.30;5.57;;;18.50;99.90;;;;;;5046423;28;20025;-71
2022/07/29 04:02:29;;;;;;;10.10;6.68;;;18.50;99.90;;;;;;5044940;28;20021;-73
2022/07/29 04:04:55;;;;;;;10.93;5.95;;;18.30;99.90;;;;;;5043539;28;20032;-71
2022/07/29 04:07:20;;;;;;;7.15;6.43;;;18.30;99.90;;;;;;5055329;28;20013;-72
2022/07/29 04:09:46;;;;;;;7.05;6.00;;;18.50;99.90;;;;;;5040665;28;20118;-71
2022/07/29 04:12:11;;;;;;;7.57;5.75;;;18.50;99.90;;;;;;5040200;28;20164;-71
2022/07/29 04:14:37;;;;;;;7.78;5.60;;;18.50;99.90;;;;;;5041311;28;20487;-71
2022/07/29 04:17:03;;;;;;;7.57;5.88;;;18.60;99.90;;;;;;5037954;28;20028;-70
2022/07/29 04:19:30;;;;;;;9.82;5.90;;;18.70;99.90;;;;;;5047038;28;20073;-71
2022/07/29 04:21:56;;;;;;;7.88;5.80;;;18.70;99.90;;;;;;5039827;28;20028;-71
2022/07/29 04:24:22;;;;;;;10.15;6.22;;;18.60;99.90;;;;;;5037779;28;20029;-71
2022/07/29 04:26:48;;;;;;;8.68;6.85;;;18.60;99.90;;;;;;5040089;28;20029;-72
2022/07/29 04:29:14;;;;;;;8.18;5.90;;;18.50;99.90;;;;;;5034977;28;20064;-71
2022/07/29 04:31:41;;;;;;;7.85;5.50;;;18.40;99.90;;;;;;5037602;28;20025;-72
2022/07/29 04:34:06;;;;;;;9.10;6.22;;;18.50;99.90;;;;;;5039812;28;20024;-71
2022/07/29 04:36:32;;;;;;;6.28;5.25;;;18.60;99.90;;;;;;5035676;28;20030;-72
2022/07/29 04:38:58;;;;;;;7.45;5.93;;;18.50;99.90;;;;;;5035706;28;20036;-72
2022/07/29 04:41:23;;;;;;;8.63;5.90;;;18.50;99.90;;;;;;5042205;28;20032;-73
2022/07/29 04:43:49;;;;;;;6.20;5.60;;;18.40;99.90;;;;;;5044611;28;20033;-72
2022/07/29 04:46:15;;;;;;;7.00;5.68;;;18.40;99.90;;;;;;5037746;28;20044;-72
2022/07/29 04:48:40;;;;;;;7.85;5.50;;;18.30;99.90;;;;;;5042677;28;20109;-74
2022/07/29 04:51:06;;;;;;;8.30;5.78;;;18.30;99.90;;;;;;5041741;28;20025;-72
2022/07/29 04:53:32;;;;;;;7.05;6.07;;;18.30;99.90;;;;;;5037392;28;20132;-71
2022/07/29 04:55:58;;;;;;;7.22;5.55;;;18.30;99.90;;;;;;5038570;28;20432;-72
2022/07/29 04:58:24;;;;;;;6.65;5.95;;;18.30;99.90;;;;;;5041582;28;20041;-74
2022/07/29 05:00:50;;;;;;;6.68;6.00;;;18.40;99.90;;;;;;5047879;28;20033;-74
2022/07/29 05:03:16;;;;;;;10.10;6.50;;;18.40;99.90;;;;;;5046309;28;20013;-75
2022/07/29 05:05:42;;;;;;;7.70;5.93;;;18.40;99.90;;;;;;5043919;28;20347;-75
2022/07/29 05:08:07;;;;;;;7.15;6.25;;;18.30;99.90;;;;;;5051532;28;20444;-75
2022/07/29 05:10:37;;;;;;;10.40;6.18;;;18.30;99.90;;;;;;5049080;28;20539;-75
2022/07/29 05:13:07;;;;;;;9.10;6.55;;;18.40;99.90;;;;;;5049546;28;20041;-74
2022/07/29 05:15:33;;;;;;;6.70;5.85;;;18.40;99.90;;;;;;5049562;28;20048;-75
2022/07/29 05:18:00;;;;;;;7.43;6.68;;;18.40;99.90;;;;;;5050765;28;20032;-74
2022/07/29 05:20:28;;;;;;;7.15;6.43;;;18.40;99.90;;;;;;5049015;28;20028;-73
2022/07/29 05:22:54;;;;;;;7.78;6.00;;;18.50;99.90;;;;;;5053497;28;20043;-73
2022/07/29 05:25:20;;;;;;;6.63;6.00;;;18.50;99.90;;;;;;5047973;28;20112;-74
2022/07/29 05:27:46;;;;;;;9.25;6.28;;;18.40;99.90;;;;;;5042565;28;20108;-74
2022/07/29 05:30:12;;;;;;;10.07;6.07;;;18.30;99.90;;;;;;5046054;28;20033;-74
2022/07/29 05:32:37;;;;;;;6.97;6.38;;;18.30;99.90;;;;;;5052288;28;20460;-73
2022/07/29 05:35:03;;;;;;;10.15;6.60;;;18.20;99.90;;;;;;5053054;28;20037;-73
2022/07/29 05:37:29;;;;;;;7.60;5.88;;;18.30;99.90;;;;;;5050918;28;20484;-73
2022/07/29 05:39:54;;;;;;;10.73;7.15;;;18.30;99.90;;;;;;5050058;28;20032;-72
2022/07/29 05:42:20;;;;;;;7.55;6.13;;;18.30;99.90;;;;;;5048551;28;20086;-72
2022/07/29 05:44:47;;;;;;;7.53;5.95;;;18.30;99.90;;;;;;5052047;28;20029;-73
2022/07/29 05:47:12;;;;;;;9.93;6.22;;;18.30;99.90;;;;;;5052933;28;20036;-72
2022/07/29 05:49:38;;;;;;;7.95;6.80;;;18.20;99.90;;;;;;5051066;28;20033;-73
2022/07/29 05:52:04;;;;;;;7.63;6.78;;;18.20;99.90;;;;;;5048212;28;20021;-73
2022/07/29 05:54:30;;;;;;;8.65;6.65;;;18.20;99.90;;;;;;5053284;28;20124;-73
2022/07/29 05:56:56;;;;;;;10.43;7.30;;;18.20;99.90;;;;;;5046785;28;20125;-72
2022/07/29 05:59:22;;;;;;;9.55;6.97;;;18.30;99.90;;;;;;5046567;28;20040;-73
2022/07/29 06:01:47;;;;;;;10.50;6.78;;;18.30;99.90;;;;;;5051850;28;20024;-72
2022/07/29 06:04:13;;;;;;;8.25;7.03;;;18.30;99.90;;;;;;5042660;28;20033;-73
2022/07/29 06:06:39;;;;;;;9.27;6.88;;;18.30;99.90;;;;;;5052306;28;20027;-73
2022/07/29 06:09:04;;;;;;;10.80;7.63;;;18.30;99.90;;;;;;5050532;28;20473;-72
2022/07/29 06:11:30;;;;;;;7.80;7.10;;;18.30;99.90;;;;;;5044370;28;20030;-72
2022/07/29 06:13:55;;;;;;;10.20;7.75;;;18.30;99.90;;;;;;5048412;28;20366;-73
2022/07/29 06:16:21;;;;;;;9.57;7.50;;;18.30;99.90;;;;;;5055189;28;20020;-73
2022/07/29 06:18:47;;;;;;;8.85;8.02;;;18.30;99.90;;;;;;5056958;28;20024;-72
2022/07/29 06:21:12;;;;;;;12.00;8.70;;;18.30;99.90;;;;;;5049209;28;20738;-73
2022/07/29 06:23:38;;;;;;;13.07;8.27;;;18.30;99.90;;;;;;5050709;28;20025;-72
2022/07/29 06:26:04;;;;;;;11.20;7.95;;;18.30;99.90;;;;;;5048291;28;20390;-72
2022/07/29 06:28:30;;;;;;;11.10;8.18;;;18.20;99.90;;;;;;5054549;28;20473;-72
2022/07/29 06:30:56;;;;;;;9.05;7.93;;;18.30;99.90;;;;;;5050799;28;20025;-72
2022/07/29 06:33:22;;;;;;;10.32;8.88;;;18.40;99.90;;;;;;5045598;28;20370;-72
2022/07/29 06:35:48;;;;;;;9.15;8.10;;;18.40;99.90;;;;;;5046746;28;20025;-72
2022/07/29 06:38:14;;;;;;;11.98;8.20;;;18.50;99.90;;;;;;5048940;28;20409;-71
2022/07/29 06:41:03;;;;;;;14.82;10.55;;;18.50;99.90;;;;;;5046267;28;20013;-72
2022/07/29 06:43:41;;;;;;;13.38;8.77;;;18.50;99.90;;;;;;5046392;28;20033;-72
2022/07/29 06:46:14;;;;;;;13.13;8.88;;;18.50;99.90;;;;;;5047088;28;20028;-72
2022/07/29 06:48:42;;;;;;;11.30;8.80;;;18.50;99.90;;;;;;5047110;28;20013;-72
2022/07/29 06:51:09;;;;;;;11.77;9.55;;;18.50;99.90;;;;;;5046094;28;20033;-72
2022/07/29 06:53:35;;;;;;;10.63;8.82;;;18.50;99.90;;;;;;5052461;28;20030;-72
2022/07/29 06:56:02;;;;;;;12.77;8.65;;;18.40;99.90;;;;;;5049828;28;20035;-72
2022/07/29 06:58:28;;;;;;;10.95;9.40;;;18.50;99.90;;;;;;5046881;28;20036;-72
2022/07/29 07:00:55;;;;;;;16.15;10.38;;;18.50;99.90;;;;;;5048903;28;20025;-72
2022/07/29 07:03:22;;;;;;;11.20;9.00;;;18.50;99.90;;;;;;5052768;28;20020;-72
2022/07/29 07:05:48;;;;;;;9.95;8.20;;;18.60;99.90;;;;;;5045491;28;20021;-72
2022/07/29 07:08:13;;;;;;;11.43;8.15;;;18.60;99.90;;;;;;5048436;28;20023;-72
2022/07/29 07:10:39;;;;;;;13.73;8.82;;;18.60;99.90;;;;;;5044220;28;20474;-72
2022/07/29 07:13:05;;;;;;;12.30;10.70;;;18.70;99.90;;;;;;5043404;28;20111;-72
2022/07/29 07:15:31;;;;;;;10.52;9.38;;;18.60;99.90;;;;;;5050359;28;20033;-72
2022/07/29 07:17:59;;;;;;;11.13;9.38;;;18.70;99.90;;;;;;5047500;28;20048;-72
2022/07/29 07:20:25;;;;;;;13.32;8.75;;;18.70;99.90;;;;;;5048223;28;20017;-72
2022/07/29 07:22:51;;;;;;;11.98;8.80;;;18.90;99.90;;;;;;5041065;28;20422;-72
2022/07/29 07:25:17;;;;;;;10.93;7.82;;;19.00;99.90;;;;;;5050918;28;20033;-72
2022/07/29 07:27:43;;;;;;;12.93;7.35;;;19.00;99.90;;;;;;5041674;28;20017;-73
2022/07/29 07:30:09;;;;;;;8.45;7.65;;;19.10;99.90;;;;;;5044098;28;20115;-72
2022/07/29 07:32:35;;;;;;;10.35;9.00;;;19.10;99.90;;;;;;5043925;28;20100;-72
2022/07/29 07:35:01;;;;;;;12.73;8.20;;;19.20;99.90;;;;;;5044770;28;20025;-73
2022/07/29 07:37:27;;;;;;;10.60;8.63;;;19.10;99.90;;;;;;5051764;28;20037;-73
2022/07/29 07:39:53;;;;;;;11.85;8.75;;;19.10;99.90;;;;;;5050376;28;20515;-72
2022/07/29 07:42:19;;;;;;;14.68;8.88;;;19.10;99.90;;;;;;5051462;28;20012;-72
2022/07/29 07:44:45;;;;;;;9.70;8.30;;;19.20;99.90;;;;;;5049198;28;20075;-72
2022/07/29 07:47:11;;;;;;;9.75;8.65;;;19.30;99.90;;;;;;5039066;28;20033;-72
2022/07/29 07:49:37;;;;;;;9.05;8.18;;;19.40;99.90;;;;;;5046070;28;20017;-72
2022/07/29 07:52:04;;;;;;;12.50;9.02;;;19.50;99.90;;;;;;5051903;28;20039;-72
2022/07/29 07:54:30;;;;;;;11.15;9.00;;;19.40;99.90;;;;;;5051363;28;20017;-72
2022/07/29 07:56:56;;;;;;;12.00;8.88;;;19.40;99.90;;;;;;5041574;28;20040;-73
2022/07/29 07:59:22;;;;;;;11.50;9.02;;;19.60;99.90;;;;;;5047020;28;20041;-73
2022/07/29 08:01:47;;;;;;;9.07;8.18;;;19.70;99.90;;;;;;5044476;28;20028;-72
2022/07/29 08:04:13;;;;;;;9.85;8.25;;;19.70;99.90;;;;;;5054477;28;20086;-73
2022/07/29 08:06:39;;;;;;;8.90;7.82;;;19.70;99.90;;;;;;5044723;28;20021;-73
2022/07/29 08:09:04;;;;;;;10.45;9.35;;;19.90;99.90;;;;;;5047675;28;20082;-72
2022/07/29 08:11:31;;;;;;;9.20;7.72;;;20.00;99.90;;;;;;5044645;28;20155;-73
2022/07/29 08:13:57;;;;;;;10.13;8.32;;;20.10;99.90;;;;;;5040081;28;20049;-73
2022/07/29 08:16:24;;;;;;;10.70;8.30;;;20.10;99.90;;;;;;5046629;28;20029;-72
2022/07/29 08:18:51;;;;;;;10.18;8.32;;;20.30;99.90;;;;;;5045081;28;20472;-73
2022/07/29 08:21:17;;;;;;;11.98;8.63;;;20.40;99.90;;;;;;5040658;28;20044;-73
2022/07/29 08:23:49;;;;;;;13.05;9.00;;;20.50;99.90;;;;;;5043086;28;20497;-74
2022/07/29 08:26:15;;;;;;;12.88;9.13;;;20.70;99.90;;;;;;5049539;28;20036;-73
2022/07/29 08:28:45;;;;;;;10.95;8.48;;;20.70;99.90;;;;;;5055446;28;20135;-74
2022/07/29 08:31:12;;;;;;;8.93;8.02;;;21.00;99.90;;;;;;5041493;28;20048;-72
2022/07/29 08:33:38;;;;;;;10.50;8.73;;;21.10;99.90;;;;;;5042252;28;20040;-73
2022/07/29 08:36:05;;;;;;;9.68;7.68;;;21.30;99.90;;;;;;5042626;28;20033;-72
2022/07/29 08:38:32;;;;;;;11.32;9.30;;;21.40;99.90;;;;;;5051085;28;20031;-74
2022/07/29 08:40:59;;;;;;;9.57;8.57;;;21.50;99.90;;;;;;5044761;28;20048;-73
2022/07/29 08:43:25;;;;;;;8.20;7.28;;;21.70;99.90;;;;;;5043697;28;20481;-73
2022/07/29 08:45:52;;;;;;;12.00;7.72;;;21.90;99.90;;;;;;5046153;28;20025;-73
2022/07/29 08:48:20;;;;;;;8.80;7.22;;;21.90;99.90;;;;;;5041749;28;20464;-73
2022/07/29 08:50:47;;;;;;;8.65;7.03;;;22.10;99.90;;;;;;5050319;28;20377;-73
2022/07/29 08:53:15;;;;;;;9.73;8.32;;;22.20;99.90;;;;;;5052670;28;20028;-73
2022/07/29 08:55:43;;;;;;;7.53;6.78;;;22.20;99.90;;;;;;5049725;28;20021;-73
2022/07/29 08:58:10;;;;;;;9.98;7.57;;;22.30;99.90;;;;;;5046302;28;20048;-73
2022/07/29 09:00:40;;;;;;;9.52;8.48;;;22.50;99.90;;;;;;5055777;28;20095;-73
2022/07/29 09:03:06;;;;;;;7.70;7.00;;;22.70;99.90;;;;;;5052743;28;20036;-74
2022/07/29 09:05:33;;;;;;;11.70;7.35;;;22.80;99.90;;;;;;5047673;28;20020;-73
2022/07/29 09:08:00;;;;;;;7.80;7.10;;;22.90;99.90;;;;;;5053079;28;20438;-71
2022/07/29 09:10:26;;;;;;;7.10;6.50;;;23.00;99.90;;;;;;5051300;28;20110;-73
2022/07/29 09:12:52;;;;;;;7.65;6.70;;;23.10;99.90;;;;;;5054252;28;20081;-73
2022/07/29 09:15:18;;;;;;;7.75;6.32;;;23.30;99.90;;;;;;5046180;28;20025;-72
2022/07/29 09:17:48;;;;;;;6.95;5.95;;;23.40;99.90;;;;;;5050463;28;20041;-72
2022/07/29 09:20:22;;;;;;;7.53;5.95;;;23.50;99.90;;;;;;5044958;28;20060;-73
2022/07/29 09:22:49;;;;;;;8.48;6.22;;;23.70;99.90;;;;;;5050059;28;20021;-73
2022/07/29 09:25:38;;;;;;;8.75;6.47;;;23.80;99.90;;;;;;5048793;28;20078;-72
2022/07/29 09:28:13;;;;;;;9.88;5.72;;;23.70;99.90;;;;;;5052962;28;20040;-73
2022/07/29 09:30:58;;;;;;;12.10;5.85;;;23.70;99.90;;;;;;5046235;28;20033;-71
2022/07/29 09:33:31;;;;;;;7.97;5.70;;;23.70;99.90;;;;;;5048630;28;20021;-72
2022/07/29 09:36:08;;;;;;;9.02;5.53;;;23.80;99.90;;;;;;5048273;28;20037;-73
2022/07/29 09:38:35;;;;;;;5.82;4.90;;;23.90;99.90;;;;;;5048419;28;20041;-72
2022/07/29 09:41:02;;;;;;;9.52;4.20;;;24.00;99.90;;;;;;5048785;28;20152;-72
2022/07/29 09:43:28;;;;;;;10.43;6.40;;;24.10;99.90;;;;;;5043734;28;20032;-73
2022/07/29 09:45:54;;;;;;;7.53;5.30;;;24.10;99.90;;;;;;5045511;28;20025;-73
2022/07/29 09:48:22;;;;;;;7.88;4.90;;;24.30;99.90;;;;;;5051944;28;20016;-72
2022/07/29 09:50:49;;;;;;;6.65;5.13;;;24.40;99.90;;;;;;5052323;28;20063;-73
2022/07/29 09:53:34;;;;;;;10.90;5.15;;;24.50;99.90;;;;;;5047589;28;20017;-73
2022/07/29 09:56:00;;;;;;;7.75;4.32;;;24.70;99.90;;;;;;5046301;28;20033;-72
2022/07/29 09:58:26;;;;;;;9.43;5.30;;;24.80;99.90;;;;;;5053295;28;20405;-73
2022/07/29 10:00:54;;;;;;;4.40;3.60;;;24.90;99.90;;;;;;5048568;28;20025;-73
2022/07/29 10:03:21;;;;;;;6.68;4.00;;;25.10;99.90;;;;;;5048538;28;20057;-73
2022/07/29 10:06:06;;;;;;;5.07;4.40;;;25.30;99.90;;;;;;5046560;28;20021;-73
2022/07/29 10:08:32;;;;;;;9.23;5.20;;;25.40;99.90;;;;;;5043645;28;20482;-73
2022/07/29 10:11:15;;;;;;;4.88;3.95;;;25.50;99.90;;;;;;5046322;28;20036;-73
2022/07/29 10:13:42;;;;;;;8.57;3.38;;;25.60;99.90;;;;;;5049494;28;20060;-72
2022/07/29 10:16:08;;;;;;;2.88;2.67;;;25.70;99.90;;;;;;5056767;28;20036;-73
2022/07/29 10:18:34;;;;;;;4.97;2.72;;;25.80;99.90;;;;;;5048216;28;20385;-72
2022/07/29 10:21:00;;;;;;;4.07;2.78;;;25.80;99.90;;;;;;5050502;28;20094;-72
2022/07/29 10:23:28;;;;;;;6.57;2.78;;;25.60;99.90;;;;;;5045264;28;20056;-73
2022/07/29 10:25:54;;;;;;;5.38;2.70;;;25.60;99.90;;;;;;5039737;28;20085;-72
2022/07/29 10:28:20;;;;;;;6.18;2.90;;;25.60;99.90;;;;;;5052086;28;20033;-73
2022/07/29 10:30:47;;;;;;;4.35;2.30;;;25.70;99.90;;;;;;5049697;28;20031;-73
2022/07/29 10:33:42;;;;;;;3.90;2.42;;;25.70;99.90;;;;;;5042901;28;20117;-73
2022/07/29 10:36:37;;;;;;;3.83;2.50;;;26.00;99.90;;;;;;5048455;28;20119;-73
2022/07/29 10:39:28;;;;;;;4.53;2.50;;;26.10;99.90;;;;;;5055997;28;20045;-72
2022/07/29 10:42:05;;;;;;;4.65;2.53;;;26.20;99.90;;;;;;5039818;28;20680;-71
2022/07/29 10:44:33;;;;;;;4.38;2.30;;;26.20;99.90;;;;;;5042235;28;20068;-72
2022/07/29 10:46:58;;;;;;;8.10;2.45;;;26.20;99.90;;;;;;5043750;28;20029;-73
2022/07/29 10:49:26;;;;;;;5.35;2.45;;;26.20;99.90;;;;;;5044477;28;20094;-73
2022/07/29 10:52:07;;;;;;;3.63;2.50;;;26.10;99.90;;;;;;5055368;28;20041;-72
2022/07/29 10:54:35;;;;;;;6.15;2.40;;;26.20;99.90;;;;;;5052355;28;20056;-73
2022/07/29 10:57:25;;;;;;;4.10;1.90;;;26.20;99.90;;;;;;5044799;28;20093;-73
2022/07/29 11:00:08;;;;;;;4.03;2.80;;;26.30;99.90;;;;;;5038902;28;20103;-73
2022/07/29 11:05:03;;;;;;;6.53;3.00;;;26.50;99.90;;;;;;5050146;28;20371;-72
2022/07/29 11:07:29;;;;;;;5.05;2.88;;;26.60;99.90;;;;;;5048546;28;20017;-74
2022/07/29 11:10:18;;;;;;;5.70;2.95;;;26.70;99.90;;;;;;5041829;28;20173;-75
2022/07/29 11:12:45;;;;;;;4.35;2.00;;;26.80;99.10;;;;;;5048155;28;20045;-74
2022/07/29 11:15:53;;;;;;;4.57;2.53;;;26.90;99.30;;;;;;5048919;28;20063;-74
2022/07/29 11:18:18;;;;;;;5.78;2.00;;;27.10;99.60;;;;;;5041810;28;20017;-74
2022/07/29 11:20:47;;;;;;;3.65;2.35;;;27.20;99.10;;;;;;5048016;28;20469;-74
2022/07/29 11:23:23;;;;;;;3.15;2.40;;;27.40;98.90;;;;;;5045440;28;20071;-74
2022/07/29 11:26:20;;;;;;;3.95;2.00;;;27.50;97.70;;;;;;5042166;28;20037;-75
2022/07/29 11:28:53;;;;;;;4.10;2.15;;;27.70;97.30;;;;;;5051837;28;20390;-74
2022/07/29 11:31:32;;;;;;;3.90;2.60;;;27.80;96.30;;;;;;5042700;28;20757;-74
2022/07/29 11:34:32;;;;;;;5.10;2.20;;;27.90;97.10;;;;;;5045943;28;20018;-74
2022/07/29 11:37:09;;;;;;;4.88;2.10;;;27.90;97.20;;;;;;5047874;28;20037;-74
2022/07/29 11:39:39;;;;;;;3.83;1.70;;;28.10;96.30;;;;;;5043266;28;20033;-74
2022/07/29 11:42:20;;;;;;;4.05;1.95;;;28.10;96.40;;;;;;5050191;28;20021;-74
2022/07/29 11:44:56;;;;;;;4.18;2.15;;;28.20;95.20;;;;;;5045926;28;20147;-74
2022/07/29 11:47:22;;;;;;;4.18;2.03;;;28.20;95.00;;;;;;5042096;28;20470;-75
2022/07/29 11:49:50;;;;;;;5.10;2.15;;;28.30;95.10;;;;;;5041752;28;20029;-74
2022/07/29 11:52:17;;;;;;;4.38;2.55;;;27.90;94.80;;;;;;5047192;28;20024;-74
2022/07/29 11:54:44;;;;;;;4.68;2.03;;;27.80;95.40;;;;;;5047961;28;20024;-75
2022/07/29 11:57:10;;;;;;;6.68;2.33;;;28.00;95.90;;;;;;5033183;28;20079;-74
2022/07/29 11:59:41;;;;;;;6.97;3.03;;;28.20;95.50;;;;;;5036139;28;20037;-75
2022/07/29 12:02:08;;;;;;;3.28;2.80;;;28.20;95.00;;;;;;5040062;28;20018;-75
2022/07/29 12:04:47;;;;;;;7.45;2.63;;;28.30;95.20;;;;;;5038418;28;20401;-75
2022/07/29 12:07:13;;;;;;;4.53;2.65;;;28.50;96.20;;;;;;5041747;28;20017;-75
2022/07/29 12:09:39;;;;;;;5.72;2.80;;;28.60;94.70;;;;;;5038937;28;20021;-74
2022/07/29 12:12:05;;;;;;;3.97;2.40;;;28.70;95.40;;;;;;5041836;28;20371;-73
2022/07/29 12:14:32;;;;;;;4.03;2.50;;;28.30;94.80;;;;;;5039596;28;20021;-74
2022/07/29 12:16:59;;;;;;;2.67;2.47;;;28.10;95.80;;;;;;5041041;28;20025;-74
2022/07/29 12:19:26;;;;;;;4.93;2.55;;;28.30;94.50;;;;;;5042695;28;20033;-75
2022/07/29 12:21:54;;;;;;;4.65;2.17;;;28.40;94.00;;;;;;5046046;28;20428;-74
2022/07/29 12:24:21;;;;;;;2.88;2.58;;;28.60;94.50;;;;;;5044104;28;20028;-74
2022/07/29 12:26:58;;;;;;;6.95;2.83;;;28.40;94.60;;;;;;5044390;28;20022;-70
2022/07/29 12:29:26;;;;;;;5.88;2.08;;;28.40;94.30;;;;;;5040366;28;20026;-73
2022/07/29 12:31:54;;;;;;;4.05;2.90;;;28.50;93.00;;;;;;5047679;28;20036;-74
2022/07/29 12:34:23;;;;;;;5.05;2.30;;;28.50;93.90;;;;;;5044894;28;20023;-73
2022/07/29 12:36:49;;;;;;;3.60;2.00;;;28.40;93.90;;;;;;5051757;28;20021;-73
2022/07/29 12:39:18;;;;;;;4.60;2.40;;;28.60;94.40;;;;;;5047502;28;20040;-73
2022/07/29 12:41:44;;;;;;;4.70;2.80;;;28.60;94.50;;;;;;5050455;28;20029;-73
2022/07/29 12:44:11;;;;;;;2.63;2.33;;;28.20;93.10;;;;;;5043864;28;20025;-73
2022/07/29 12:46:37;;;;;;;5.80;2.60;;;28.00;94.70;;;;;;5047192;28;20060;-74
2022/07/29 12:49:04;;;;;;;4.28;2.28;;;28.20;93.70;;;;;;5048004;28;20076;-73
2022/07/29 12:51:36;;;;;;;4.07;2.38;;;28.40;95.10;;;;;;5050593;28;20036;-74
2022/07/29 12:54:19;;;;;;;5.10;2.08;;;28.60;94.50;;;;;;5045827;28;20036;-73
2022/07/29 12:56:45;;;;;;;3.25;1.80;;;28.80;94.10;;;;;;5051887;28;20016;-73
2022/07/29 12:59:13;;;;;;;2.63;1.92;;;28.90;92.40;;;;;;5048273;28;20044;-74
2022/07/29 13:01:39;;;;;;;2.95;1.90;;;28.80;92.60;;;;;;5051736;28;20029;-74